Antimony, Utah
Current Conditions -  °F | °C
As of 4:53 PM on Friday 24 Oct 2014 (Local Time) from KBCE Reporting Station
Clear Clear  
Wind Chill: 19°   Ceiling: Unl
Heat Index: 19°   Visibility: 10mi
Dew Point: -2°   Wind: 15mph
Humidity: 25%   Direction: 150°SSE
Pressure: 30.35"   Gusts: NA
Location:  38.12°N, 112°W
Report Text: KBCE 242253Z AUTO 15013KT 10SM CLR 19/M02 A3035 RMK AO2 SLP205 T01891017 TSNO
Loading
Personal Weather Stations






























Interactive Weather Map
Tropical Storm Tracking
New forecast layout! Learn more

10-Day Weather Forecast

Advertisements
Track Severe Weather on mobile